Chart 1
 
(A maximum of 50 rows are displayed here. Use "Export Data" to see all rows in the date range.)
Date Collected Temp WindChill
(Celcius)
WindSpeed
(km/hr)
Gust
(km/hr)
Wind Direction
(degrees)
2026-05-06 18:00 20.0 16.6 9 19 347
2026-05-06 17:00 20.4 17.2 9 25 351
2026-05-06 16:00 20.7 18.5 7 21 5
2026-05-06 15:00 20.7 19.1 5 15 350
2026-05-06 14:00 20.4 16.5 10 28 348
2026-05-06 13:00 20.0 16.7 9 30 3
2026-05-06 12:00 19.9 16.8 8 23 6
2026-05-06 11:00 20.8 17.3 9 28 3
2026-05-06 10:00 20.5 17.4 8 21 13
2026-05-06 09:00 19.7 15.7 9 24 16
2026-05-06 08:00 18.9 14.9 9 23 25
2026-05-06 07:00 18.5 16.2 6 15 28
2026-05-06 06:00 18.4 15.4 7 20 28
2026-05-06 05:00 18.3 15.4 7 16 31
2026-05-06 04:00 18.3 13.8 10 22 19
2026-05-06 03:00 18.3 15.0 8 19 28
2026-05-06 02:00 18.5 15.1 8 22 13
2026-05-06 01:00 18.8 15.3 8 21 15
2026-05-06 00:00 18.8 15.4 8 22 355
2026-05-05 23:00 17.5 15.7 5 20 19
2026-05-05 22:00 17.7 15.6 6 13 20
2026-05-05 21:00 18.8 16.4 7 16 27
2026-05-05 20:00 18.8 15.7 8 20 353
2026-05-05 19:00 18.8 16.7 6 14 12
2026-05-05 18:00 18.8 15.4 8 23 6
2026-05-05 17:00 18.2 16.0 6 12 41
2026-05-05 16:00 17.8 17.8 2 5 17
2026-05-05 15:00 18.2 17.1 4 10 33
2026-05-05 14:00 18.2 17.5 3 11 331
2026-05-05 13:00 18.9 16.5 6 19 341
2026-05-05 12:00 19.4 16.6 7 15 2
2026-05-05 11:00 19.1 16.9 6 13 20
2026-05-05 10:00 19.4 16.6 7 16 24
2026-05-05 09:00 19.3 16.9 6 15 28
2026-05-05 08:00 18.7 16.6 6 15 24
2026-05-05 07:00 18.5 16.3 6 18 24
2026-05-05 06:00 18.4 16.9 5 11 30
2026-05-05 05:00 18.4 17.3 4 11 40
2026-05-05 04:00 18.4 17.1 5 11 35
2026-05-05 03:00 18.5 17.1 5 11 47
2026-05-05 02:00 18.7 18.0 3 8 24
2026-05-05 01:00 18.7 17.2 5 12 24
2026-05-05 00:00 18.8 17.7 4 12 16
2026-05-04 23:00 18.8 16.9 5 15 360
2026-05-04 22:00 18.3 17.3 4 12 9
2026-05-04 21:00 18.8 17.9 4 11 10
2026-05-04 20:00 18.7 16.9 5 12 2
2026-05-04 19:00 18.6 17.5 4 12 355
2026-05-04 18:00 18.6 17.9 4 11 20
2026-05-04 17:00 18.7 18.0 3 10 4